Terminal Aerodrome Forecast
Issued by NWS Sioux Falls, SD

Home | Current Version | Previous Version | Graphics & Text | Print | Product List | Glossary On
Versions: 1 2 3 4 5 6 7 8 9 10 11 12 13 14 15 16 17 18 19 20 21 22 23 24 25 26 27 28 29 30 31 32 33 34
000
FTUS43 KFSD 201100
TAFSUX
TAF
KSUX 201123Z 2012/2112 16009KT P6SM SKC
     FM201400 17013KT P6SM SCT018
     FM201700 17015G24KT P6SM SCT025
     FM202000 18013G21KT P6SM SCT035
     FM210030 15009KT P6SM SCT035
     FM210700 14006KT P6SM FEW030=

USA.gov is the U.S. government's official web portal to all federal, state and local government web resources and services.